sensor_id;sensor_type;location;lat;lon;timestamp;P1;durP1;ratioP1;P2;durP2;ratioP2
9334;SDS011;4706;41.844;26.082;2023-11-22T00:00:02;8.50;;;6.57;;
9334;SDS011;4706;41.844;26.082;2023-11-22T00:02:28;7.97;;;6.47;;
9334;SDS011;4706;41.844;26.082;2023-11-22T00:04:54;10.57;;;7.68;;
9334;SDS011;4706;41.844;26.082;2023-11-22T00:07:20;9.43;;;6.95;;
9334;SDS011;4706;41.844;26.082;2023-11-22T00:09:46;9.00;;;7.55;;
9334;SDS011;4706;41.844;26.082;2023-11-22T00:12:12;7.38;;;6.68;;
9334;SDS011;4706;41.844;26.082;2023-11-22T00:14:38;8.27;;;7.32;;
9334;SDS011;4706;41.844;26.082;2023-11-22T00:17:04;8.40;;;6.68;;
9334;SDS011;4706;41.844;26.082;2023-11-22T00:19:30;8.73;;;7.10;;
9334;SDS011;4706;41.844;26.082;2023-11-22T00:21:56;7.38;;;6.68;;
9334;SDS011;4706;41.844;26.082;2023-11-22T00:24:21;9.32;;;6.85;;
9334;SDS011;4706;41.844;26.082;2023-11-22T00:26:47;9.20;;;6.60;;
9334;SDS011;4706;41.844;26.082;2023-11-22T00:29:12;7.45;;;6.28;;
9334;SDS011;4706;41.844;26.082;2023-11-22T00:31:38;8.27;;;6.35;;
9334;SDS011;4706;41.844;26.082;2023-11-22T00:34:04;10.05;;;7.63;;
9334;SDS011;4706;41.844;26.082;2023-11-22T00:36:29;9.93;;;7.20;;
9334;SDS011;4706;41.844;26.082;2023-11-22T00:38:55;8.32;;;7.28;;
9334;SDS011;4706;41.844;26.082;2023-11-22T00:41:21;8.45;;;6.88;;
9334;SDS011;4706;41.844;26.082;2023-11-22T00:43:46;8.13;;;7.32;;
9334;SDS011;4706;41.844;26.082;2023-11-22T00:46:13;8.00;;;6.53;;
9334;SDS011;4706;41.844;26.082;2023-11-22T00:48:38;8.43;;;6.63;;
9334;SDS011;4706;41.844;26.082;2023-11-22T00:51:04;8.23;;;6.35;;
9334;SDS011;4706;41.844;26.082;2023-11-22T00:53:34;7.95;;;6.95;;
9334;SDS011;4706;41.844;26.082;2023-11-22T00:56:01;7.10;;;6.40;;
9334;SDS011;4706;41.844;26.082;2023-11-22T00:58:27;6.93;;;6.32;;
9334;SDS011;4706;41.844;26.082;2023-11-22T01:00:53;8.18;;;7.30;;
9334;SDS011;4706;41.844;26.082;2023-11-22T01:03:19;9.63;;;7.40;;
9334;SDS011;4706;41.844;26.082;2023-11-22T01:05:44;8.30;;;7.35;;
9334;SDS011;4706;41.844;26.082;2023-11-22T01:08:11;9.43;;;7.30;;
9334;SDS011;4706;41.844;26.082;2023-11-22T01:10:38;8.90;;;7.30;;
9334;SDS011;4706;41.844;26.082;2023-11-22T01:13:04;11.10;;;7.00;;
9334;SDS011;4706;41.844;26.082;2023-11-22T01:15:30;9.10;;;7.30;;
9334;SDS011;4706;41.844;26.082;2023-11-22T01:17:55;8.80;;;7.20;;
9334;SDS011;4706;41.844;26.082;2023-11-22T01:20:21;10.43;;;7.00;;
9334;SDS011;4706;41.844;26.082;2023-11-22T01:22:48;7.70;;;6.90;;
9334;SDS011;4706;41.844;26.082;2023-11-22T01:25:14;7.80;;;7.00;;
9334;SDS011;4706;41.844;26.082;2023-11-22T01:27:39;7.45;;;6.75;;
9334;SDS011;4706;41.844;26.082;2023-11-22T01:30:06;7.82;;;7.00;;
9334;SDS011;4706;41.844;26.082;2023-11-22T01:32:33;8.70;;;7.68;;
9334;SDS011;4706;41.844;26.082;2023-11-22T01:34:59;8.77;;;6.93;;
9334;SDS011;4706;41.844;26.082;2023-11-22T01:37:26;10.05;;;7.30;;
9334;SDS011;4706;41.844;26.082;2023-11-22T01:39:52;9.50;;;6.80;;
9334;SDS011;4706;41.844;26.082;2023-11-22T01:42:19;8.52;;;6.72;;
9334;SDS011;4706;41.844;26.082;2023-11-22T01:44:46;8.40;;;7.03;;
9334;SDS011;4706;41.844;26.082;2023-11-22T01:47:13;8.35;;;7.18;;
9334;SDS011;4706;41.844;26.082;2023-11-22T01:49:39;8.38;;;7.05;;
9334;SDS011;4706;41.844;26.082;2023-11-22T01:52:05;7.57;;;6.78;;
9334;SDS011;4706;41.844;26.082;2023-11-22T01:54:31;8.75;;;7.38;;
9334;SDS011;4706;41.844;26.082;2023-11-22T01:56:58;9.88;;;7.20;;
9334;SDS011;4706;41.844;26.082;2023-11-22T01:59:25;8.02;;;6.43;;
9334;SDS011;4706;41.844;26.082;2023-11-22T02:01:53;10.20;;;8.23;;
9334;SDS011;4706;41.844;26.082;2023-11-22T02:04:19;8.25;;;6.90;;
9334;SDS011;4706;41.844;26.082;2023-11-22T02:06:45;9.50;;;7.05;;
9334;SDS011;4706;41.844;26.082;2023-11-22T02:09:12;9.27;;;6.85;;
9334;SDS011;4706;41.844;26.082;2023-11-22T02:11:40;10.25;;;8.00;;
9334;SDS011;4706;41.844;26.082;2023-11-22T02:14:07;10.13;;;7.97;;
9334;SDS011;4706;41.844;26.082;2023-11-22T02:16:34;8.57;;;7.38;;
9334;SDS011;4706;41.844;26.082;2023-11-22T02:19:00;7.55;;;6.53;;
9334;SDS011;4706;41.844;26.082;2023-11-22T02:21:26;9.70;;;7.63;;
9334;SDS011;4706;41.844;26.082;2023-11-22T02:23:51;9.57;;;7.82;;
9334;SDS011;4706;41.844;26.082;2023-11-22T02:26:17;8.93;;;7.75;;
9334;SDS011;4706;41.844;26.082;2023-11-22T02:28:43;8.40;;;7.55;;
9334;SDS011;4706;41.844;26.082;2023-11-22T02:31:09;11.52;;;6.93;;
9334;SDS011;4706;41.844;26.082;2023-11-22T02:33:35;8.02;;;6.70;;
9334;SDS011;4706;41.844;26.082;2023-11-22T02:36:01;7.82;;;7.03;;
9334;SDS011;4706;41.844;26.082;2023-11-22T02:38:27;7.75;;;6.95;;
9334;SDS011;4706;41.844;26.082;2023-11-22T02:40:53;7.32;;;6.47;;
9334;SDS011;4706;41.844;26.082;2023-11-22T02:43:19;7.95;;;6.85;;
9334;SDS011;4706;41.844;26.082;2023-11-22T02:45:45;8.60;;;7.72;;
9334;SDS011;4706;41.844;26.082;2023-11-22T02:48:11;10.35;;;9.18;;
9334;SDS011;4706;41.844;26.082;2023-11-22T02:50:38;13.02;;;9.85;;
9334;SDS011;4706;41.844;26.082;2023-11-22T02:53:05;11.50;;;9.60;;
9334;SDS011;4706;41.844;26.082;2023-11-22T02:55:30;11.95;;;9.43;;
9334;SDS011;4706;41.844;26.082;2023-11-22T02:57:56;11.00;;;9.10;;
9334;SDS011;4706;41.844;26.082;2023-11-22T03:00:21;15.98;;;10.05;;
9334;SDS011;4706;41.844;26.082;2023-11-22T03:02:47;11.68;;;7.70;;
9334;SDS011;4706;41.844;26.082;2023-11-22T03:05:19;12.00;;;8.77;;
9334;SDS011;4706;41.844;26.082;2023-11-22T03:07:48;14.38;;;9.15;;
9334;SDS011;4706;41.844;26.082;2023-11-22T03:10:16;12.60;;;9.48;;
9334;SDS011;4706;41.844;26.082;2023-11-22T03:12:43;10.82;;;8.73;;
9334;SDS011;4706;41.844;26.082;2023-11-22T03:15:09;12.73;;;9.30;;
9334;SDS011;4706;41.844;26.082;2023-11-22T03:17:34;15.10;;;10.85;;
9334;SDS011;4706;41.844;26.082;2023-11-22T03:20:00;12.85;;;10.75;;
9334;SDS011;4706;41.844;26.082;2023-11-22T03:22:26;12.40;;;9.80;;
9334;SDS011;4706;41.844;26.082;2023-11-22T03:24:55;11.05;;;8.88;;
9334;SDS011;4706;41.844;26.082;2023-11-22T03:27:21;10.95;;;9.00;;
9334;SDS011;4706;41.844;26.082;2023-11-22T03:29:48;14.02;;;11.68;;
9334;SDS011;4706;41.844;26.082;2023-11-22T03:32:14;13.07;;;9.32;;
9334;SDS011;4706;41.844;26.082;2023-11-22T03:34:40;10.82;;;8.88;;
9334;SDS011;4706;41.844;26.082;2023-11-22T03:37:05;10.20;;;8.52;;
9334;SDS011;4706;41.844;26.082;2023-11-22T03:39:31;11.32;;;9.07;;
9334;SDS011;4706;41.844;26.082;2023-11-22T03:41:56;9.23;;;8.15;;
9334;SDS011;4706;41.844;26.082;2023-11-22T03:44:22;10.90;;;8.30;;
9334;SDS011;4706;41.844;26.082;2023-11-22T03:46:48;10.52;;;8.18;;
9334;SDS011;4706;41.844;26.082;2023-11-22T03:49:14;10.00;;;8.38;;
9334;SDS011;4706;41.844;26.082;2023-11-22T03:51:41;11.38;;;9.80;;
9334;SDS011;4706;41.844;26.082;2023-11-22T03:54:07;10.70;;;9.60;;
9334;SDS011;4706;41.844;26.082;2023-11-22T03:56:35;13.05;;;11.85;;
9334;SDS011;4706;41.844;26.082;2023-11-22T03:59:00;20.30;;;17.13;;
9334;SDS011;4706;41.844;26.082;2023-11-22T04:01:26;17.23;;;15.57;;
9334;SDS011;4706;41.844;26.082;2023-11-22T04:03:52;12.13;;;10.60;;
9334;SDS011;4706;41.844;26.082;2023-11-22T04:06:19;12.85;;;11.55;;
9334;SDS011;4706;41.844;26.082;2023-11-22T04:08:44;16.05;;;12.95;;
9334;SDS011;4706;41.844;26.082;2023-11-22T04:11:11;14.32;;;10.48;;
9334;SDS011;4706;41.844;26.082;2023-11-22T04:13:37;12.82;;;9.88;;
9334;SDS011;4706;41.844;26.082;2023-11-22T04:16:03;11.82;;;10.40;;
9334;SDS011;4706;41.844;26.082;2023-11-22T04:18:30;10.38;;;8.75;;
9334;SDS011;4706;41.844;26.082;2023-11-22T04:20:55;11.10;;;7.97;;
9334;SDS011;4706;41.844;26.082;2023-11-22T04:23:23;8.98;;;8.05;;
9334;SDS011;4706;41.844;26.082;2023-11-22T04:25:49;10.05;;;9.05;;
9334;SDS011;4706;41.844;26.082;2023-11-22T04:28:14;9.07;;;7.78;;
9334;SDS011;4706;41.844;26.082;2023-11-22T04:30:40;9.93;;;7.68;;
9334;SDS011;4706;41.844;26.082;2023-11-22T04:33:06;8.23;;;7.40;;
9334;SDS011;4706;41.844;26.082;2023-11-22T04:35:32;9.38;;;7.50;;
9334;SDS011;4706;41.844;26.082;2023-11-22T04:38:02;11.68;;;9.32;;
9334;SDS011;4706;41.844;26.082;2023-11-22T04:40:29;13.30;;;8.80;;
9334;SDS011;4706;41.844;26.082;2023-11-22T04:42:55;13.95;;;9.88;;
9334;SDS011;4706;41.844;26.082;2023-11-22T04:45:20;14.20;;;9.52;;
9334;SDS011;4706;41.844;26.082;2023-11-22T04:47:46;13.18;;;10.35;;
9334;SDS011;4706;41.844;26.082;2023-11-22T04:50:11;16.50;;;11.23;;
9334;SDS011;4706;41.844;26.082;2023-11-22T04:52:37;15.20;;;10.98;;
9334;SDS011;4706;41.844;26.082;2023-11-22T04:55:03;13.30;;;10.35;;
9334;SDS011;4706;41.844;26.082;2023-11-22T04:57:29;10.75;;;9.55;;
9334;SDS011;4706;41.844;26.082;2023-11-22T04:59:55;17.17;;;12.40;;
9334;SDS011;4706;41.844;26.082;2023-11-22T05:02:20;13.20;;;11.45;;
9334;SDS011;4706;41.844;26.082;2023-11-22T05:04:46;14.80;;;11.35;;
9334;SDS011;4706;41.844;26.082;2023-11-22T05:07:14;18.77;;;13.63;;
9334;SDS011;4706;41.844;26.082;2023-11-22T05:09:40;16.17;;;14.48;;
9334;SDS011;4706;41.844;26.082;2023-11-22T05:12:06;16.98;;;14.50;;
9334;SDS011;4706;41.844;26.082;2023-11-22T05:14:32;18.30;;;16.30;;
9334;SDS011;4706;41.844;26.082;2023-11-22T05:16:57;19.77;;;17.20;;
9334;SDS011;4706;41.844;26.082;2023-11-22T05:19:24;25.50;;;21.50;;
9334;SDS011;4706;41.844;26.082;2023-11-22T05:21:49;25.65;;;22.33;;
9334;SDS011;4706;41.844;26.082;2023-11-22T05:24:15;25.42;;;22.73;;
9334;SDS011;4706;41.844;26.082;2023-11-22T05:26:40;24.23;;;21.45;;
9334;SDS011;4706;41.844;26.082;2023-11-22T05:29:06;25.38;;;22.08;;
9334;SDS011;4706;41.844;26.082;2023-11-22T05:31:31;29.35;;;25.98;;
9334;SDS011;4706;41.844;26.082;2023-11-22T05:33:57;26.13;;;23.35;;
9334;SDS011;4706;41.844;26.082;2023-11-22T05:36:23;25.40;;;22.63;;
9334;SDS011;4706;41.844;26.082;2023-11-22T05:38:48;26.20;;;22.55;;
9334;SDS011;4706;41.844;26.082;2023-11-22T05:41:14;26.15;;;21.92;;
9334;SDS011;4706;41.844;26.082;2023-11-22T05:43:40;26.98;;;23.48;;
9334;SDS011;4706;41.844;26.082;2023-11-22T05:46:08;31.98;;;23.42;;
9334;SDS011;4706;41.844;26.082;2023-11-22T05:48:33;24.80;;;22.10;;
9334;SDS011;4706;41.844;26.082;2023-11-22T05:50:59;24.92;;;22.25;;
9334;SDS011;4706;41.844;26.082;2023-11-22T05:53:25;27.10;;;24.25;;
9334;SDS011;4706;41.844;26.082;2023-11-22T05:55:50;28.17;;;24.23;;
9334;SDS011;4706;41.844;26.082;2023-11-22T05:58:16;30.35;;;23.27;;
9334;SDS011;4706;41.844;26.082;2023-11-22T06:00:43;30.30;;;23.40;;
9334;SDS011;4706;41.844;26.082;2023-11-22T06:03:09;28.27;;;24.77;;
9334;SDS011;4706;41.844;26.082;2023-11-22T06:05:36;31.55;;;22.48;;
9334;SDS011;4706;41.844;26.082;2023-11-22T06:08:01;33.25;;;24.42;;
9334;SDS011;4706;41.844;26.082;2023-11-22T06:10:27;31.58;;;24.75;;
9334;SDS011;4706;41.844;26.082;2023-11-22T06:12:52;31.42;;;23.50;;
9334;SDS011;4706;41.844;26.082;2023-11-22T06:15:18;29.70;;;26.02;;
9334;SDS011;4706;41.844;26.082;2023-11-22T06:17:46;31.35;;;24.75;;
9334;SDS011;4706;41.844;26.082;2023-11-22T06:20:13;29.60;;;22.90;;
9334;SDS011;4706;41.844;26.082;2023-11-22T06:22:39;26.92;;;22.13;;
9334;SDS011;4706;41.844;26.082;2023-11-22T06:25:10;26.88;;;21.15;;
9334;SDS011;4706;41.844;26.082;2023-11-22T06:27:39;30.60;;;22.85;;
9334;SDS011;4706;41.844;26.082;2023-11-22T06:30:05;26.45;;;22.13;;
9334;SDS011;4706;41.844;26.082;2023-11-22T06:32:31;24.30;;;20.85;;
9334;SDS011;4706;41.844;26.082;2023-11-22T06:34:58;30.90;;;24.33;;
9334;SDS011;4706;41.844;26.082;2023-11-22T06:37:24;32.42;;;24.90;;
9334;SDS011;4706;41.844;26.082;2023-11-22T06:39:49;28.33;;;24.60;;
9334;SDS011;4706;41.844;26.082;2023-11-22T06:42:16;40.45;;;30.50;;
9334;SDS011;4706;41.844;26.082;2023-11-22T06:44:42;40.55;;;30.23;;
9334;SDS011;4706;41.844;26.082;2023-11-22T06:47:08;42.55;;;28.98;;
9334;SDS011;4706;41.844;26.082;2023-11-22T06:49:33;36.97;;;30.80;;
9334;SDS011;4706;41.844;26.082;2023-11-22T06:51:59;44.83;;;31.52;;
9334;SDS011;4706;41.844;26.082;2023-11-22T06:54:25;32.20;;;27.48;;
9334;SDS011;4706;41.844;26.082;2023-11-22T06:56:51;30.98;;;25.73;;
9334;SDS011;4706;41.844;26.082;2023-11-22T06:59:17;35.90;;;27.65;;
9334;SDS011;4706;41.844;26.082;2023-11-22T07:01:43;37.88;;;31.27;;
9334;SDS011;4706;41.844;26.082;2023-11-22T07:04:09;42.05;;;31.60;;
9334;SDS011;4706;41.844;26.082;2023-11-22T07:06:35;57.67;;;33.40;;
9334;SDS011;4706;41.844;26.082;2023-11-22T07:09:02;61.22;;;39.92;;
9334;SDS011;4706;41.844;26.082;2023-11-22T07:11:28;56.35;;;38.55;;
9334;SDS011;4706;41.844;26.082;2023-11-22T07:13:55;51.17;;;43.53;;
9334;SDS011;4706;41.844;26.082;2023-11-22T07:16:22;53.75;;;44.20;;
9334;SDS011;4706;41.844;26.082;2023-11-22T07:18:49;52.47;;;44.75;;
9334;SDS011;4706;41.844;26.082;2023-11-22T07:21:16;49.83;;;40.60;;
9334;SDS011;4706;41.844;26.082;2023-11-22T07:23:42;45.53;;;33.58;;
9334;SDS011;4706;41.844;26.082;2023-11-22T07:26:10;39.75;;;33.17;;
9334;SDS011;4706;41.844;26.082;2023-11-22T07:28:36;42.40;;;32.13;;
9334;SDS011;4706;41.844;26.082;2023-11-22T07:31:02;32.38;;;27.50;;
9334;SDS011;4706;41.844;26.082;2023-11-22T07:33:31;37.38;;;31.00;;
9334;SDS011;4706;41.844;26.082;2023-11-22T07:35:56;37.95;;;30.23;;
9334;SDS011;4706;41.844;26.082;2023-11-22T07:38:22;29.58;;;25.25;;
9334;SDS011;4706;41.844;26.082;2023-11-22T07:40:48;29.08;;;25.45;;
9334;SDS011;4706;41.844;26.082;2023-11-22T07:43:14;53.55;;;47.75;;
9334;SDS011;4706;41.844;26.082;2023-11-22T07:45:39;36.78;;;29.40;;
9334;SDS011;4706;41.844;26.082;2023-11-22T07:48:05;36.33;;;27.08;;
9334;SDS011;4706;41.844;26.082;2023-11-22T07:50:31;48.08;;;35.08;;
9334;SDS011;4706;41.844;26.082;2023-11-22T07:52:57;60.17;;;41.67;;
9334;SDS011;4706;41.844;26.082;2023-11-22T07:55:22;57.55;;;37.55;;
9334;SDS011;4706;41.844;26.082;2023-11-22T07:57:48;54.45;;;38.60;;
9334;SDS011;4706;41.844;26.082;2023-11-22T08:00:18;53.58;;;36.03;;
9334;SDS011;4706;41.844;26.082;2023-11-22T08:02:47;49.40;;;29.50;;
9334;SDS011;4706;41.844;26.082;2023-11-22T08:05:21;37.80;;;23.58;;
9334;SDS011;4706;41.844;26.082;2023-11-22T08:07:49;27.30;;;20.55;;
9334;SDS011;4706;41.844;26.082;2023-11-22T08:10:14;25.35;;;22.70;;
9334;SDS011;4706;41.844;26.082;2023-11-22T08:12:46;28.70;;;24.40;;
9334;SDS011;4706;41.844;26.082;2023-11-22T08:15:15;27.77;;;22.88;;
9334;SDS011;4706;41.844;26.082;2023-11-22T08:17:41;30.17;;;26.40;;
9334;SDS011;4706;41.844;26.082;2023-11-22T08:20:08;31.20;;;26.20;;
9334;SDS011;4706;41.844;26.082;2023-11-22T08:22:39;27.80;;;22.15;;
9334;SDS011;4706;41.844;26.082;2023-11-22T08:25:08;28.52;;;22.27;;
9334;SDS011;4706;41.844;26.082;2023-11-22T08:27:38;34.45;;;24.70;;
9334;SDS011;4706;41.844;26.082;2023-11-22T08:30:06;29.77;;;23.50;;
9334;SDS011;4706;41.844;26.082;2023-11-22T08:32:44;47.40;;;41.00;;
9334;SDS011;4706;41.844;26.082;2023-11-22T08:35:16;39.85;;;31.52;;
9334;SDS011;4706;41.844;26.082;2023-11-22T08:37:42;27.30;;;24.40;;
9334;SDS011;4706;41.844;26.082;2023-11-22T08:40:08;25.83;;;21.02;;
9334;SDS011;4706;41.844;26.082;2023-11-22T08:42:36;24.95;;;21.90;;
9334;SDS011;4706;41.844;26.082;2023-11-22T08:45:02;24.80;;;21.67;;
9334;SDS011;4706;41.844;26.082;2023-11-22T08:47:28;26.98;;;23.58;;
9334;SDS011;4706;41.844;26.082;2023-11-22T08:49:55;25.15;;;21.90;;
9334;SDS011;4706;41.844;26.082;2023-11-22T08:52:22;24.58;;;21.58;;
9334;SDS011;4706;41.844;26.082;2023-11-22T08:54:48;28.95;;;23.52;;
9334;SDS011;4706;41.844;26.082;2023-11-22T08:57:16;30.13;;;26.58;;
9334;SDS011;4706;41.844;26.082;2023-11-22T08:59:42;47.22;;;39.17;;
9334;SDS011;4706;41.844;26.082;2023-11-22T09:02:08;31.13;;;27.83;;
9334;SDS011;4706;41.844;26.082;2023-11-22T09:04:35;27.20;;;24.50;;
9334;SDS011;4706;41.844;26.082;2023-11-22T09:07:00;30.00;;;26.58;;
9334;SDS011;4706;41.844;26.082;2023-11-22T09:09:26;26.83;;;24.02;;
9334;SDS011;4706;41.844;26.082;2023-11-22T09:11:59;26.42;;;22.55;;
9334;SDS011;4706;41.844;26.082;2023-11-22T09:14:24;27.30;;;24.33;;
9334;SDS011;4706;41.844;26.082;2023-11-22T09:16:51;25.25;;;22.13;;
9334;SDS011;4706;41.844;26.082;2023-11-22T09:19:23;24.23;;;21.73;;
9334;SDS011;4706;41.844;26.082;2023-11-22T09:21:50;24.88;;;21.85;;
9334;SDS011;4706;41.844;26.082;2023-11-22T09:24:16;26.15;;;21.73;;
9334;SDS011;4706;41.844;26.082;2023-11-22T09:26:42;27.92;;;25.00;;
9334;SDS011;4706;41.844;26.082;2023-11-22T09:29:09;27.40;;;24.35;;
9334;SDS011;4706;41.844;26.082;2023-11-22T09:31:39;28.02;;;24.13;;
9334;SDS011;4706;41.844;26.082;2023-11-22T09:34:05;25.00;;;21.45;;
9334;SDS011;4706;41.844;26.082;2023-11-22T09:36:30;24.08;;;21.63;;
9334;SDS011;4706;41.844;26.082;2023-11-22T09:38:59;24.52;;;22.08;;
9334;SDS011;4706;41.844;26.082;2023-11-22T09:41:25;23.70;;;21.20;;
9334;SDS011;4706;41.844;26.082;2023-11-22T09:43:52;23.65;;;20.77;;
9334;SDS011;4706;41.844;26.082;2023-11-22T09:46:18;23.00;;;20.52;;
9334;SDS011;4706;41.844;26.082;2023-11-22T09:48:46;24.02;;;20.38;;
9334;SDS011;4706;41.844;26.082;2023-11-22T09:51:20;23.30;;;20.98;;
9334;SDS011;4706;41.844;26.082;2023-11-22T09:56:22;23.60;;;21.15;;
9334;SDS011;4706;41.844;26.082;2023-11-22T09:58:53;25.67;;;22.23;;
9334;SDS011;4706;41.844;26.082;2023-11-22T10:01:24;25.38;;;21.90;;
9334;SDS011;4706;41.844;26.082;2023-11-22T10:03:54;24.85;;;22.30;;
9334;SDS011;4706;41.844;26.082;2023-11-22T10:06:19;22.77;;;19.90;;
9334;SDS011;4706;41.844;26.082;2023-11-22T10:08:45;24.63;;;20.80;;
9334;SDS011;4706;41.844;26.082;2023-11-22T10:11:18;24.67;;;20.83;;
9334;SDS011;4706;41.844;26.082;2023-11-22T10:13:47;22.38;;;20.08;;
9334;SDS011;4706;41.844;26.082;2023-11-22T10:16:13;28.48;;;25.63;;
9334;SDS011;4706;41.844;26.082;2023-11-22T10:18:41;23.00;;;20.55;;
9334;SDS011;4706;41.844;26.082;2023-11-22T10:21:27;24.65;;;21.98;;
9334;SDS011;4706;41.844;26.082;2023-11-22T10:23:59;28.25;;;22.77;;
9334;SDS011;4706;41.844;26.082;2023-11-22T10:26:27;29.00;;;23.65;;
9334;SDS011;4706;41.844;26.082;2023-11-22T10:28:54;37.25;;;29.10;;
9334;SDS011;4706;41.844;26.082;2023-11-22T10:31:22;37.60;;;27.20;;
9334;SDS011;4706;41.844;26.082;2023-11-22T10:33:49;30.80;;;24.80;;
9334;SDS011;4706;41.844;26.082;2023-11-22T10:36:15;25.23;;;22.42;;
9334;SDS011;4706;41.844;26.082;2023-11-22T10:38:46;23.40;;;20.70;;
9334;SDS011;4706;41.844;26.082;2023-11-22T10:41:12;25.90;;;22.75;;
9334;SDS011;4706;41.844;26.082;2023-11-22T10:43:41;23.52;;;21.00;;
9334;SDS011;4706;41.844;26.082;2023-11-22T10:46:07;25.23;;;22.02;;
9334;SDS011;4706;41.844;26.082;2023-11-22T10:48:36;24.10;;;21.63;;
9334;SDS011;4706;41.844;26.082;2023-11-22T10:51:02;24.27;;;21.33;;
9334;SDS011;4706;41.844;26.082;2023-11-22T10:53:33;24.98;;;19.77;;
9334;SDS011;4706;41.844;26.082;2023-11-22T10:56:19;22.80;;;20.38;;
9334;SDS011;4706;41.844;26.082;2023-11-22T11:01:12;26.75;;;22.52;;
9334;SDS011;4706;41.844;26.082;2023-11-22T11:03:41;27.23;;;21.55;;
9334;SDS011;4706;41.844;26.082;2023-11-22T11:06:14;23.20;;;20.77;;
9334;SDS011;4706;41.844;26.082;2023-11-22T11:08:44;27.00;;;21.80;;
9334;SDS011;4706;41.844;26.082;2023-11-22T11:11:11;27.85;;;22.23;;
9334;SDS011;4706;41.844;26.082;2023-11-22T11:13:38;24.75;;;21.90;;
9334;SDS011;4706;41.844;26.082;2023-11-22T11:16:05;24.70;;;20.73;;
9334;SDS011;4706;41.844;26.082;2023-11-22T11:18:31;24.98;;;21.15;;
9334;SDS011;4706;41.844;26.082;2023-11-22T11:20:58;25.88;;;20.45;;
9334;SDS011;4706;41.844;26.082;2023-11-22T11:23:27;21.90;;;19.52;;
9334;SDS011;4706;41.844;26.082;2023-11-22T11:25:57;22.77;;;19.73;;
9334;SDS011;4706;41.844;26.082;2023-11-22T11:28:51;22.10;;;19.80;;
9334;SDS011;4706;41.844;26.082;2023-11-22T11:31:20;25.88;;;22.13;;
9334;SDS011;4706;41.844;26.082;2023-11-22T11:36:25;25.10;;;22.50;;
9334;SDS011;4706;41.844;26.082;2023-11-22T11:38:54;23.65;;;20.35;;
9334;SDS011;4706;41.844;26.082;2023-11-22T11:41:27;24.60;;;20.92;;
9334;SDS011;4706;41.844;26.082;2023-11-22T11:44:03;22.95;;;20.58;;
9334;SDS011;4706;41.844;26.082;2023-11-22T11:46:32;21.98;;;19.63;;
9334;SDS011;4706;41.844;26.082;2023-11-22T11:48:58;31.73;;;25.65;;
9334;SDS011;4706;41.844;26.082;2023-11-22T11:51:24;23.70;;;21.20;;
9334;SDS011;4706;41.844;26.082;2023-11-22T11:53:52;22.30;;;19.98;;
9334;SDS011;4706;41.844;26.082;2023-11-22T11:56:19;71.82;;;47.45;;
9334;SDS011;4706;41.844;26.082;2023-11-22T11:58:45;67.90;;;41.30;;
9334;SDS011;4706;41.844;26.082;2023-11-22T12:01:15;34.20;;;25.08;;
9334;SDS011;4706;41.844;26.082;2023-11-22T12:03:42;47.97;;;32.80;;
9334;SDS011;4706;41.844;26.082;2023-11-22T12:06:14;34.40;;;24.95;;
9334;SDS011;4706;41.844;26.082;2023-11-22T12:08:41;39.72;;;25.98;;
9334;SDS011;4706;41.844;26.082;2023-11-22T12:11:07;38.03;;;25.20;;
9334;SDS011;4706;41.844;26.082;2023-11-22T12:13:33;62.17;;;34.60;;
9334;SDS011;4706;41.844;26.082;2023-11-22T12:16:00;50.55;;;30.85;;
9334;SDS011;4706;41.844;26.082;2023-11-22T12:18:28;58.60;;;36.08;;
9334;SDS011;4706;41.844;26.082;2023-11-22T12:20:54;37.00;;;24.95;;
9334;SDS011;4706;41.844;26.082;2023-11-22T12:23:24;29.60;;;21.77;;
9334;SDS011;4706;41.844;26.082;2023-11-22T12:25:57;33.42;;;20.38;;
9334;SDS011;4706;41.844;26.082;2023-11-22T12:28:23;23.33;;;19.50;;
9334;SDS011;4706;41.844;26.082;2023-11-22T12:30:52;27.75;;;20.23;;
9334;SDS011;4706;41.844;26.082;2023-11-22T12:33:18;22.85;;;19.35;;
9334;SDS011;4706;41.844;26.082;2023-11-22T12:35:45;23.90;;;20.05;;
9334;SDS011;4706;41.844;26.082;2023-11-22T12:38:11;24.45;;;21.48;;
9334;SDS011;4706;41.844;26.082;2023-11-22T12:40:37;25.90;;;21.42;;
9334;SDS011;4706;41.844;26.082;2023-11-22T12:43:02;22.67;;;19.55;;
9334;SDS011;4706;41.844;26.082;2023-11-22T12:45:29;23.23;;;19.00;;
9334;SDS011;4706;41.844;26.082;2023-11-22T12:47:56;21.48;;;19.05;;
9334;SDS011;4706;41.844;26.082;2023-11-22T12:50:38;25.02;;;20.08;;
9334;SDS011;4706;41.844;26.082;2023-11-22T12:53:07;26.38;;;20.30;;
9334;SDS011;4706;41.844;26.082;2023-11-22T12:55:37;26.48;;;21.10;;
9334;SDS011;4706;41.844;26.082;2023-11-22T12:58:14;25.00;;;22.25;;
9334;SDS011;4706;41.844;26.082;2023-11-22T13:00:44;27.25;;;22.73;;
9334;SDS011;4706;41.844;26.082;2023-11-22T13:03:12;26.92;;;23.67;;
9334;SDS011;4706;41.844;26.082;2023-11-22T13:05:39;29.52;;;25.75;;
9334;SDS011;4706;41.844;26.082;2023-11-22T13:08:09;36.33;;;30.88;;
9334;SDS011;4706;41.844;26.082;2023-11-22T13:10:38;33.63;;;29.90;;
9334;SDS011;4706;41.844;26.082;2023-11-22T13:13:12;39.92;;;31.23;;
9334;SDS011;4706;41.844;26.082;2023-11-22T13:15:39;35.58;;;29.23;;
9334;SDS011;4706;41.844;26.082;2023-11-22T13:18:05;35.17;;;28.83;;
9334;SDS011;4706;41.844;26.082;2023-11-22T13:20:31;37.78;;;33.78;;
9334;SDS011;4706;41.844;26.082;2023-11-22T13:22:58;34.40;;;31.10;;
9334;SDS011;4706;41.844;26.082;2023-11-22T13:25:25;35.28;;;31.80;;
9334;SDS011;4706;41.844;26.082;2023-11-22T13:27:50;33.85;;;30.48;;
9334;SDS011;4706;41.844;26.082;2023-11-22T13:30:20;32.83;;;29.40;;
9334;SDS011;4706;41.844;26.082;2023-11-22T13:32:57;31.52;;;28.23;;
9334;SDS011;4706;41.844;26.082;2023-11-22T13:35:23;35.03;;;29.88;;
9334;SDS011;4706;41.844;26.082;2023-11-22T13:37:49;36.33;;;30.80;;
9334;SDS011;4706;41.844;26.082;2023-11-22T13:40:16;33.35;;;29.30;;
9334;SDS011;4706;41.844;26.082;2023-11-22T13:42:47;31.88;;;28.67;;
9334;SDS011;4706;41.844;26.082;2023-11-22T13:45:15;31.33;;;28.23;;
9334;SDS011;4706;41.844;26.082;2023-11-22T13:47:45;32.03;;;28.65;;
9334;SDS011;4706;41.844;26.082;2023-11-22T13:50:15;30.42;;;27.50;;
9334;SDS011;4706;41.844;26.082;2023-11-22T13:52:50;30.95;;;27.55;;
9334;SDS011;4706;41.844;26.082;2023-11-22T13:55:16;29.35;;;26.45;;
9334;SDS011;4706;41.844;26.082;2023-11-22T13:57:47;28.63;;;25.85;;
9334;SDS011;4706;41.844;26.082;2023-11-22T14:00:17;29.77;;;26.63;;
9334;SDS011;4706;41.844;26.082;2023-11-22T14:02:45;28.77;;;25.98;;
9334;SDS011;4706;41.844;26.082;2023-11-22T14:05:11;30.98;;;27.83;;
9334;SDS011;4706;41.844;26.082;2023-11-22T14:07:37;39.30;;;35.08;;
9334;SDS011;4706;41.844;26.082;2023-11-22T14:10:04;36.05;;;32.15;;
9334;SDS011;4706;41.844;26.082;2023-11-22T14:12:31;31.77;;;27.17;;
9334;SDS011;4706;41.844;26.082;2023-11-22T14:15:00;30.77;;;27.52;;
9334;SDS011;4706;41.844;26.082;2023-11-22T14:17:26;31.85;;;27.38;;
9334;SDS011;4706;41.844;26.082;2023-11-22T14:19:52;29.63;;;26.00;;
9334;SDS011;4706;41.844;26.082;2023-11-22T14:22:18;31.08;;;25.95;;
9334;SDS011;4706;41.844;26.082;2023-11-22T14:24:46;31.40;;;28.10;;
9334;SDS011;4706;41.844;26.082;2023-11-22T14:27:12;31.55;;;28.20;;
9334;SDS011;4706;41.844;26.082;2023-11-22T14:29:38;35.38;;;31.55;;
9334;SDS011;4706;41.844;26.082;2023-11-22T14:32:04;30.92;;;27.92;;
9334;SDS011;4706;41.844;26.082;2023-11-22T14:34:30;34.05;;;30.40;;
9334;SDS011;4706;41.844;26.082;2023-11-22T14:36:55;32.53;;;29.17;;
9334;SDS011;4706;41.844;26.082;2023-11-22T14:39:21;33.20;;;29.65;;
9334;SDS011;4706;41.844;26.082;2023-11-22T14:41:46;34.78;;;30.15;;
9334;SDS011;4706;41.844;26.082;2023-11-22T14:44:12;30.92;;;27.70;;
9334;SDS011;4706;41.844;26.082;2023-11-22T14:46:38;31.85;;;28.42;;